Louisville, Kentucky
Current Conditions -  °F | °C
As of 2:56 AM on Friday 19 Dec 2014 (Local Time) from KSDF Reporting Station
Overcast Overcast  
Wind Chill: 27°   Ceiling: 7000
Heat Index: 32°   Visibility: 8mi
Dew Point: 24°   Wind: 5mph
Humidity: 73%   Direction: 10°N
Pressure: 30.26"   Gusts: NA
Location:  38.25°N, 85.77°W
Report Text: KSDF 190756Z 01004KT 8SM FEW015 OVC070 00/M04 A3026 RMK AO2 SLP251 T00001044
Loading
Personal Weather Stations






























Interactive Weather Map New forecast layout! Learn more

10-Day Weather Forecast

Advertisements
Track Severe Weather on mobile